createdAt,value
2023-04-20T00:00:11.879Z,-7.26
2023-04-20T00:02:43.569Z,-7.21
2023-04-20T00:05:13.204Z,-7.11
2023-04-20T00:07:42.198Z,-7.00
2023-04-20T00:10:11.441Z,-6.82
2023-04-20T00:12:40.230Z,-6.63
2023-04-20T00:15:09.441Z,-6.55
2023-04-20T00:17:39.963Z,-6.42
2023-04-20T00:20:10.547Z,-6.30
2023-04-20T00:22:39.410Z,-6.22
2023-04-20T00:25:08.612Z,-6.17
2023-04-20T00:27:37.390Z,-6.01
2023-04-20T00:30:06.501Z,-5.95
2023-04-20T00:32:35.387Z,-5.87
2023-04-20T00:35:04.524Z,-5.82
2023-04-20T00:37:33.397Z,-5.74
2023-04-20T00:40:02.139Z,-5.66
2023-04-20T00:42:34.142Z,-5.58
2023-04-20T00:45:02.804Z,-5.51
2023-04-20T00:47:33.399Z,-5.50
2023-04-20T00:50:05.935Z,-5.38
2023-04-20T00:52:35.353Z,-5.14
2023-04-20T00:55:06.643Z,-4.90
2023-04-20T00:57:36.077Z,-4.85
2023-04-20T01:00:08.105Z,-4.76
2023-04-20T01:02:37.693Z,-4.64
2023-04-20T01:05:10.844Z,-4.47
2023-04-20T01:07:39.742Z,-4.20
2023-04-20T01:10:09.401Z,-4.14
2023-04-20T01:12:41.713Z,-3.91
2023-04-20T01:15:12.839Z,-3.51
2023-04-20T01:17:42.136Z,-3.06
2023-04-20T01:20:15.462Z,-2.81
2023-04-20T01:22:52.130Z,-2.55
2023-04-20T01:25:21.978Z,-2.10
2023-04-20T01:27:51.130Z,-1.65
2023-04-20T01:30:20.014Z,-1.39
2023-04-20T01:32:49.259Z,-1.31
2023-04-20T01:35:18.038Z,-1.29
2023-04-20T01:37:46.934Z,-1.17
2023-04-20T01:40:16.532Z,-0.83
2023-04-20T01:42:45.338Z,-0.40
2023-04-20T01:45:14.176Z,0.02
2023-04-20T01:47:43.082Z,0.28
2023-04-20T01:50:12.068Z,0.44
2023-04-20T01:52:41.069Z,0.70
2023-04-20T01:55:12.314Z,1.11
2023-04-20T01:57:41.128Z,1.23
2023-04-20T02:00:11.893Z,1.39
2023-04-20T02:02:43.836Z,1.69
2023-04-20T02:05:12.769Z,2.19
2023-04-20T02:07:41.787Z,2.97
2023-04-20T02:10:11.186Z,3.51
2023-04-20T02:12:40.043Z,3.18
2023-04-20T02:15:09.966Z,2.72
2023-04-20T02:17:58.652Z,2.73
2023-04-20T02:20:28.137Z,2.97
2023-04-20T02:22:57.041Z,3.21
2023-04-20T02:25:26.009Z,3.62
2023-04-20T02:27:55.112Z,4.18
2023-04-20T02:30:24.133Z,4.83
2023-04-20T02:32:53.301Z,5.23
2023-04-20T02:35:22.259Z,5.83
2023-04-20T02:37:51.868Z,6.51
2023-04-20T02:40:20.804Z,5.79
2023-04-20T02:42:49.672Z,4.60
2023-04-20T02:45:19.014Z,4.21
2023-04-20T02:47:49.197Z,4.29
2023-04-20T02:50:19.088Z,4.38
2023-04-20T02:53:03.735Z,4.29
2023-04-20T02:55:36.106Z,4.28
2023-04-20T02:58:13.236Z,4.45
2023-04-20T03:01:03.622Z,4.02
2023-04-20T03:03:33.484Z,3.26
2023-04-20T03:06:02.555Z,2.86
2023-04-20T03:08:32.248Z,2.45
2023-04-20T03:11:09.838Z,1.60
2023-04-20T03:13:38.639Z,1.65
2023-04-20T03:16:07.773Z,1.88
2023-04-20T03:18:41.745Z,1.99
2023-04-20T03:21:11.359Z,1.76
2023-04-20T03:23:40.897Z,1.80
2023-04-20T03:26:10.475Z,2.31
2023-04-20T03:28:59.481Z,2.39
2023-04-20T03:31:29.237Z,2.78
2023-04-20T03:33:59.262Z,3.69
2023-04-20T03:36:28.951Z,4.11
2023-04-20T03:38:59.173Z,4.27
2023-04-20T03:41:27.945Z,4.93
2023-04-20T03:43:57.181Z,5.27
2023-04-20T03:46:26.249Z,5.02
2023-04-20T03:48:55.204Z,4.94
2023-04-20T03:51:25.390Z,4.91
2023-04-20T03:53:54.164Z,4.70
2023-04-20T03:56:23.264Z,4.58
2023-04-20T03:58:53.636Z,4.73
2023-04-20T04:01:26.658Z,5.20
2023-04-20T04:03:55.942Z,5.50
2023-04-20T04:06:25.002Z,5.89
2023-04-20T04:08:54.210Z,5.99
2023-04-20T04:11:23.079Z,5.20
2023-04-20T04:13:52.135Z,4.97
2023-04-20T04:16:21.254Z,5.03
2023-04-20T04:18:51.294Z,5.21
2023-04-20T04:21:21.744Z,6.12
2023-04-20T04:23:56.994Z,6.64
2023-04-20T04:26:52.106Z,6.10
2023-04-20T04:29:21.289Z,5.13
2023-04-20T04:31:50.098Z,4.52
2023-04-20T04:34:21.012Z,4.30
2023-04-20T04:36:54.108Z,4.30
2023-04-20T04:39:31.264Z,4.76
2023-04-20T04:42:10.054Z,5.06
2023-04-20T04:44:43.424Z,6.08
2023-04-20T04:47:18.704Z,6.07
2023-04-20T04:49:48.676Z,5.18
2023-04-20T04:52:17.575Z,3.93
2023-04-20T04:54:46.484Z,3.16
2023-04-20T04:57:15.561Z,3.25
2023-04-20T04:59:44.296Z,4.32
2023-04-20T05:02:13.950Z,5.76
2023-04-20T05:04:43.081Z,6.75
2023-04-20T05:07:12.099Z,7.21
2023-04-20T05:09:41.419Z,7.70
2023-04-20T05:12:10.292Z,7.18
2023-04-20T05:14:39.258Z,6.40
2023-04-20T05:17:08.077Z,6.57
2023-04-20T05:19:36.940Z,6.23
2023-04-20T05:22:05.999Z,6.15
2023-04-20T05:24:34.914Z,6.85
2023-04-20T05:27:04.711Z,7.05
2023-04-20T05:29:33.574Z,6.93
2023-04-20T05:32:02.527Z,7.10
2023-04-20T05:34:31.838Z,6.84
2023-04-20T05:37:00.717Z,6.29
2023-04-20T05:39:29.732Z,7.21
2023-04-20T05:41:58.691Z,8.40
2023-04-20T05:44:27.468Z,7.69
2023-04-20T05:46:56.386Z,6.14
2023-04-20T05:49:25.257Z,6.19
2023-04-20T05:51:54.120Z,5.92
2023-04-20T05:54:23.121Z,5.36
2023-04-20T05:56:52.100Z,4.26
2023-04-20T05:59:21.768Z,3.88
2023-04-20T06:01:51.157Z,3.60
2023-04-20T06:04:20.626Z,3.14
2023-04-20T06:06:49.937Z,2.62
2023-04-20T06:09:19.000Z,2.09
2023-04-20T06:11:48.116Z,2.10
2023-04-20T06:14:17.296Z,3.54
2023-04-20T06:16:46.484Z,5.78
2023-04-20T06:19:15.501Z,7.39
2023-04-20T06:21:44.599Z,7.76
2023-04-20T06:24:13.516Z,6.31
2023-04-20T06:26:42.252Z,4.82
2023-04-20T06:29:11.114Z,4.64
2023-04-20T06:31:40.039Z,4.39
2023-04-20T06:34:09.006Z,4.04
2023-04-20T06:36:37.784Z,3.93
2023-04-20T06:39:06.590Z,4.47
2023-04-20T06:41:35.479Z,5.64
2023-04-20T06:44:08.139Z,5.29
2023-04-20T06:46:37.549Z,4.21
2023-04-20T06:49:06.752Z,4.77
2023-04-20T06:51:35.769Z,6.34
2023-04-20T06:54:04.653Z,6.20
2023-04-20T06:56:35.478Z,6.44
2023-04-20T06:59:04.604Z,5.86
2023-04-20T07:01:33.921Z,4.97
2023-04-20T07:04:03.651Z,4.10
2023-04-20T07:06:32.642Z,3.17
2023-04-20T07:09:01.479Z,2.60
2023-04-20T07:11:30.535Z,2.20
2023-04-20T07:13:59.395Z,1.85
2023-04-20T07:16:28.342Z,1.30
2023-04-20T07:18:57.308Z,0.99
2023-04-20T07:21:27.505Z,1.25
2023-04-20T07:23:59.093Z,1.38
2023-04-20T07:26:28.146Z,1.25
2023-04-20T07:28:56.937Z,1.11
2023-04-20T07:31:26.037Z,0.97
2023-04-20T07:33:54.862Z,0.94
2023-04-20T07:36:23.752Z,1.38
2023-04-20T07:38:52.964Z,3.18
2023-04-20T07:41:23.735Z,4.66
2023-04-20T07:43:53.578Z,4.71
2023-04-20T07:46:23.839Z,4.18
2023-04-20T07:48:53.229Z,3.54
2023-04-20T07:51:22.145Z,3.08
2023-04-20T07:53:51.115Z,2.80
2023-04-20T07:56:19.957Z,3.83
2023-04-20T07:58:49.066Z,5.58
2023-04-20T08:01:18.425Z,6.52
2023-04-20T08:03:48.761Z,7.54
2023-04-20T08:06:18.070Z,8.72
2023-04-20T08:08:47.085Z,9.24
2023-04-20T08:11:15.960Z,9.38
2023-04-20T08:13:44.766Z,9.00
2023-04-20T08:16:13.778Z,7.87
2023-04-20T08:18:42.834Z,6.68
2023-04-20T08:21:11.813Z,5.73
2023-04-20T08:23:40.778Z,4.99
2023-04-20T08:26:09.627Z,4.25
2023-04-20T08:28:38.513Z,3.59
2023-04-20T08:31:07.401Z,3.41
2023-04-20T08:33:36.959Z,3.37
2023-04-20T08:36:06.064Z,3.21
2023-04-20T08:38:35.038Z,3.20
2023-04-20T08:41:04.089Z,3.30
2023-04-20T08:43:33.403Z,2.84
2023-04-20T08:46:04.255Z,2.39
2023-04-20T08:48:38.830Z,1.93
2023-04-20T08:51:08.057Z,1.81
2023-04-20T08:53:36.885Z,1.73
2023-04-20T08:56:06.024Z,1.48
2023-04-20T08:58:34.875Z,1.25
2023-04-20T09:01:04.443Z,1.09
2023-04-20T09:03:37.117Z,0.95
2023-04-20T09:06:07.860Z,0.87
2023-04-20T09:08:39.213Z,0.74
2023-04-20T09:11:20.978Z,0.66
2023-04-20T09:14:06.155Z,0.74
2023-04-20T09:16:35.446Z,1.01
2023-04-20T09:19:04.504Z,1.20
2023-04-20T09:21:33.504Z,1.28
2023-04-20T09:24:09.366Z,1.28
2023-04-20T09:26:38.175Z,1.18
2023-04-20T09:29:21.251Z,1.03
2023-04-20T09:31:51.381Z,0.89
2023-04-20T09:34:21.118Z,0.78
2023-04-20T09:36:52.685Z,0.90
2023-04-20T09:39:23.484Z,0.99
2023-04-20T09:41:53.794Z,0.99
2023-04-20T09:44:22.645Z,0.95
2023-04-20T09:46:51.927Z,0.90
2023-04-20T09:49:21.929Z,0.83
2023-04-20T09:51:50.737Z,0.75
2023-04-20T09:54:20.592Z,0.62
2023-04-20T09:56:50.707Z,0.46
2023-04-20T09:59:22.049Z,0.25
2023-04-20T10:01:51.926Z,0.13
2023-04-20T10:04:21.305Z,0.10
2023-04-20T10:06:55.674Z,0.08
2023-04-20T10:09:26.861Z,0.11
2023-04-20T10:12:07.322Z,0.14
2023-04-20T10:14:36.564Z,0.03
2023-04-20T10:17:08.053Z,-0.13
2023-04-20T10:19:43.627Z,-0.21
2023-04-20T10:22:25.999Z,-0.26
2023-04-20T10:24:54.733Z,-0.42
2023-04-20T10:27:23.606Z,-0.46
2023-04-20T10:29:52.588Z,-0.51
2023-04-20T10:32:29.674Z,-0.62
2023-04-20T10:35:07.410Z,-0.71
2023-04-20T10:37:49.416Z,-0.76
2023-04-20T10:40:28.022Z,-0.75
2023-04-20T10:42:57.167Z,-0.70
2023-04-20T10:45:42.036Z,-0.71
2023-04-20T10:48:11.605Z,-0.78
2023-04-20T10:50:40.812Z,-1.00
2023-04-20T10:53:21.322Z,-1.24
2023-04-20T10:56:00.589Z,-1.45
2023-04-20T10:58:29.669Z,-1.64
2023-04-20T11:01:05.319Z,-1.76
2023-04-20T11:03:37.459Z,-1.77
2023-04-20T11:06:07.241Z,-1.83
2023-04-20T11:08:42.436Z,-1.86
2023-04-20T11:11:25.944Z,-2.06
2023-04-20T11:14:08.786Z,-2.39
2023-04-20T11:16:48.085Z,-2.69
2023-04-20T11:19:31.431Z,-3.00
2023-04-20T11:22:01.829Z,-3.09
2023-04-20T11:24:34.313Z,-3.18
2023-04-20T11:27:05.243Z,-3.21
2023-04-20T11:29:35.364Z,-3.28
2023-04-20T11:32:09.891Z,-3.31
2023-04-20T11:34:40.458Z,-3.38
2023-04-20T11:37:11.368Z,-3.47
2023-04-20T11:39:40.592Z,-3.53
2023-04-20T11:42:09.622Z,-3.60
2023-04-20T11:44:41.859Z,-3.65
2023-04-20T11:47:10.605Z,-3.68
2023-04-20T11:49:39.602Z,-3.72
2023-04-20T11:52:08.433Z,-3.74
2023-04-20T11:54:37.349Z,-3.69
2023-04-20T11:57:06.220Z,-3.71
2023-04-20T11:59:35.442Z,-3.79
2023-04-20T12:02:07.107Z,-3.83
2023-04-20T12:04:37.938Z,-3.85
2023-04-20T12:07:06.944Z,-3.85
2023-04-20T12:09:37.852Z,-3.92
2023-04-20T12:12:07.983Z,-3.94
2023-04-20T12:14:37.282Z,-3.96
2023-04-20T12:17:06.348Z,-3.99
2023-04-20T12:19:35.508Z,-4.01
2023-04-20T12:22:04.374Z,-4.03
2023-04-20T12:24:33.186Z,-4.00
2023-04-20T12:27:04.824Z,-4.00
2023-04-20T12:29:33.994Z,-4.01
2023-04-20T12:32:03.209Z,-4.03
2023-04-20T12:34:32.057Z,-4.03
2023-04-20T12:37:01.662Z,-4.01
2023-04-20T12:39:30.533Z,-3.98
2023-04-20T12:41:59.467Z,-3.89
2023-04-20T12:44:28.376Z,-3.88
2023-04-20T12:46:57.403Z,-3.82
2023-04-20T12:49:26.338Z,-3.79
2023-04-20T12:51:55.227Z,-3.80
2023-04-20T12:54:24.050Z,-3.75
2023-04-20T12:56:52.965Z,-3.82
2023-04-20T12:59:21.904Z,-3.96
2023-04-20T13:01:51.555Z,-4.09
2023-04-20T13:04:21.013Z,-4.27
2023-04-20T13:06:50.031Z,-4.42
2023-04-20T13:09:18.935Z,-4.51
2023-04-20T13:11:47.712Z,-4.57
2023-04-20T13:14:17.062Z,-4.62
2023-04-20T13:16:46.061Z,-4.65
2023-04-20T13:19:15.088Z,-4.68
2023-04-20T13:21:43.971Z,-4.72
2023-04-20T13:24:12.932Z,-4.71
2023-04-20T13:26:41.725Z,-4.77
2023-04-20T13:29:10.593Z,-4.76
2023-04-20T13:31:39.605Z,-4.78
2023-04-20T13:34:09.020Z,-4.81
2023-04-20T13:36:38.288Z,-4.76
2023-04-20T13:39:07.305Z,-4.77
2023-04-20T13:41:36.168Z,-4.80
2023-04-20T13:44:05.438Z,-4.81
2023-04-20T13:46:34.698Z,-4.80
2023-04-20T13:49:04.009Z,-4.79
2023-04-20T13:51:33.202Z,-4.76
2023-04-20T13:54:02.054Z,-4.73
2023-04-20T13:56:30.971Z,-4.68
2023-04-20T13:58:59.978Z,-4.67
2023-04-20T14:01:30.301Z,-4.73
2023-04-20T14:03:59.697Z,-4.76
2023-04-20T14:06:29.423Z,-4.76
2023-04-20T14:08:58.257Z,-4.80
2023-04-20T14:11:27.423Z,-4.79
2023-04-20T14:13:56.476Z,-4.76
2023-04-20T14:16:26.634Z,-4.75
2023-04-20T14:18:55.534Z,-4.81
2023-04-20T14:21:24.820Z,-4.79
2023-04-20T14:23:55.643Z,-4.84
2023-04-20T14:26:24.776Z,-4.91
2023-04-20T14:28:56.195Z,-4.93
2023-04-20T14:31:25.914Z,-4.99
2023-04-20T14:33:55.031Z,-4.99
2023-04-20T14:36:23.918Z,-5.04
2023-04-20T14:38:52.799Z,-5.14
2023-04-20T14:41:21.735Z,-5.09
2023-04-20T14:43:50.607Z,-5.15
2023-04-20T14:46:19.811Z,-5.05
2023-04-20T14:48:48.904Z,-5.01
2023-04-20T14:51:19.587Z,-5.02
2023-04-20T14:53:48.495Z,-5.00
2023-04-20T14:56:17.384Z,-5.01
2023-04-20T14:58:48.548Z,-5.00
2023-04-20T15:01:18.228Z,-4.99
2023-04-20T15:03:47.599Z,-4.95
2023-04-20T15:06:17.550Z,-4.96
2023-04-20T15:08:46.468Z,-4.99
2023-04-20T15:11:15.295Z,-5.06
2023-04-20T15:13:44.356Z,-5.11
2023-04-20T15:16:13.357Z,-5.17
2023-04-20T15:18:42.086Z,-5.19
2023-04-20T15:21:11.571Z,-5.17
2023-04-20T15:23:42.456Z,-5.13
2023-04-20T15:26:12.120Z,-5.07
2023-04-20T15:28:41.223Z,-4.98
2023-04-20T15:31:10.142Z,-4.95
2023-04-20T15:33:39.158Z,-4.97
2023-04-20T15:36:08.460Z,-5.01
2023-04-20T15:38:37.312Z,-5.05
2023-04-20T15:41:06.311Z,-5.06
2023-04-20T15:43:35.426Z,-5.05
2023-04-20T15:46:04.675Z,-5.02
2023-04-20T15:48:33.700Z,-5.03
2023-04-20T15:51:03.738Z,-4.99
2023-04-20T15:53:33.884Z,-5.01
2023-04-20T15:56:02.893Z,-4.98
2023-04-20T15:58:32.242Z,-4.99
2023-04-20T16:01:02.376Z,-4.96
2023-04-20T16:03:31.925Z,-4.92
2023-04-20T16:06:00.799Z,-4.90
2023-04-20T16:08:30.298Z,-4.86
2023-04-20T16:10:59.337Z,-4.83
2023-04-20T16:13:28.536Z,-4.83
2023-04-20T16:15:57.592Z,-4.86
2023-04-20T16:18:26.843Z,-4.83
2023-04-20T16:20:55.770Z,-4.85
2023-04-20T16:23:24.843Z,-4.89
2023-04-20T16:25:53.809Z,-4.92
2023-04-20T16:28:22.636Z,-4.94
2023-04-20T16:30:51.477Z,-4.94
2023-04-20T16:33:20.655Z,-4.90
2023-04-20T16:35:49.535Z,-4.87
2023-04-20T16:38:19.739Z,-4.85
2023-04-20T16:40:48.620Z,-4.84
2023-04-20T16:43:17.484Z,-4.82
2023-04-20T16:45:46.459Z,-4.77
2023-04-20T16:48:15.408Z,-4.76
2023-04-20T16:50:44.736Z,-4.80
2023-04-20T16:53:13.539Z,-4.81
2023-04-20T16:55:42.416Z,-4.86
2023-04-20T16:58:11.499Z,-4.91
2023-04-20T17:00:41.481Z,-4.98
2023-04-20T17:03:13.531Z,-5.08
2023-04-20T17:05:42.868Z,-5.18
2023-04-20T17:08:11.764Z,-5.27
2023-04-20T17:10:40.745Z,-5.34
2023-04-20T17:13:09.655Z,-5.37
2023-04-20T17:15:38.636Z,-5.41
2023-04-20T17:18:08.134Z,-5.41
2023-04-20T17:20:37.133Z,-5.41
2023-04-20T17:23:06.009Z,-5.45
2023-04-20T17:25:35.861Z,-5.41
2023-04-20T17:28:05.023Z,-5.36
2023-04-20T17:30:33.915Z,-5.34
2023-04-20T17:33:02.772Z,-5.32
2023-04-20T17:35:31.795Z,-5.29
2023-04-20T17:38:00.558Z,-5.25
2023-04-20T17:40:29.489Z,-5.21
2023-04-20T17:42:58.380Z,-5.24
2023-04-20T17:45:27.206Z,-5.36
2023-04-20T17:47:56.305Z,-5.43
2023-04-20T17:50:25.258Z,-5.45
2023-04-20T17:52:54.076Z,-5.44
2023-04-20T17:55:23.077Z,-5.45
2023-04-20T17:57:51.799Z,-5.45
2023-04-20T18:00:23.037Z,-5.46
2023-04-20T18:02:52.073Z,-5.46
2023-04-20T18:05:21.314Z,-5.47
2023-04-20T18:07:50.173Z,-5.48
2023-04-20T18:10:19.520Z,-5.55
2023-04-20T18:12:49.187Z,-5.62
2023-04-20T18:15:18.050Z,-5.68
2023-04-20T18:17:46.903Z,-5.72
2023-04-20T18:20:16.025Z,-5.75
2023-04-20T18:22:44.820Z,-5.77
2023-04-20T18:25:13.624Z,-5.77
2023-04-20T18:27:42.376Z,-5.72
2023-04-20T18:30:11.662Z,-5.62
2023-04-20T18:32:40.958Z,-5.47
2023-04-20T18:35:10.291Z,-5.36
2023-04-20T18:37:39.203Z,-5.27
2023-04-20T18:40:08.892Z,-5.19
2023-04-20T18:42:37.664Z,-5.14
2023-04-20T18:45:07.367Z,-5.12
2023-04-20T18:47:36.309Z,-5.12
2023-04-20T18:50:05.745Z,-5.10
2023-04-20T18:52:35.601Z,-5.08
2023-04-20T18:55:04.764Z,-5.08
2023-04-20T18:57:33.804Z,-5.08
2023-04-20T19:00:02.630Z,-5.15
2023-04-20T19:02:36.008Z,-5.22
2023-04-20T19:05:05.218Z,-5.27
2023-04-20T19:07:34.386Z,-5.29
2023-04-20T19:10:03.232Z,-5.35
2023-04-20T19:12:34.256Z,-5.43
2023-04-20T19:15:03.068Z,-5.52
2023-04-20T19:17:34.763Z,-5.53
2023-04-20T19:20:04.849Z,-5.58
2023-04-20T19:22:33.985Z,-5.57
2023-04-20T19:25:03.325Z,-5.60
2023-04-20T19:27:32.818Z,-5.67
2023-04-20T19:30:01.777Z,-5.66
2023-04-20T19:32:33.397Z,-5.67
2023-04-20T19:35:03.427Z,-5.66
2023-04-20T19:37:33.865Z,-5.70
2023-04-20T19:40:02.912Z,-5.75
2023-04-20T19:42:32.956Z,-5.72
2023-04-20T19:45:02.043Z,-5.73
2023-04-20T19:47:33.884Z,-5.73
2023-04-20T19:50:04.109Z,-5.77
2023-04-20T19:52:35.609Z,-5.85
2023-04-20T19:55:05.894Z,-5.91
2023-04-20T19:57:34.730Z,-5.91
2023-04-20T20:00:05.402Z,-5.93
2023-04-20T20:02:42.799Z,-5.89
2023-04-20T20:05:11.785Z,-5.85
2023-04-20T20:07:40.944Z,-5.83
2023-04-20T20:10:10.029Z,-5.83
2023-04-20T20:12:38.966Z,-5.86
2023-04-20T20:15:08.281Z,-5.95
2023-04-20T20:17:37.283Z,-6.10
2023-04-20T20:20:07.091Z,-6.20
2023-04-20T20:22:36.118Z,-6.34
2023-04-20T20:25:05.171Z,-6.42
2023-04-20T20:27:34.567Z,-6.55
2023-04-20T20:30:03.379Z,-6.49
2023-04-20T20:32:33.620Z,-6.52
2023-04-20T20:35:02.520Z,-6.55
2023-04-20T20:37:35.297Z,-6.50
2023-04-20T20:40:10.773Z,-6.49
2023-04-20T20:42:40.634Z,-6.48
2023-04-20T20:45:14.489Z,-6.47
2023-04-20T20:47:44.889Z,-6.46
2023-04-20T20:50:16.059Z,-6.48
2023-04-20T20:52:44.898Z,-6.52
2023-04-20T20:55:14.135Z,-6.54
2023-04-20T20:57:42.971Z,-6.62
2023-04-20T21:00:13.209Z,-6.69
2023-04-20T21:02:42.432Z,-6.76
2023-04-20T21:05:11.858Z,-6.83
2023-04-20T21:07:41.423Z,-6.94
2023-04-20T21:10:12.206Z,-7.01
2023-04-20T21:12:41.339Z,-7.00
2023-04-20T21:15:10.900Z,-7.03
2023-04-20T21:17:39.785Z,-7.10
2023-04-20T21:20:10.012Z,-7.13
2023-04-20T21:22:38.921Z,-7.16
2023-04-20T21:25:08.135Z,-7.18
2023-04-20T21:27:36.970Z,-7.20
2023-04-20T21:30:06.494Z,-7.23
2023-04-20T21:32:35.457Z,-7.23
2023-04-20T21:35:04.971Z,-7.23
2023-04-20T21:37:33.929Z,-7.25
2023-04-20T21:40:02.890Z,-7.23
2023-04-20T21:42:32.185Z,-7.24
2023-04-20T21:45:02.188Z,-7.20
2023-04-20T21:47:33.204Z,-7.21
2023-04-20T21:50:02.086Z,-7.19
2023-04-20T21:52:33.068Z,-7.19
2023-04-20T21:55:01.981Z,-7.19
2023-04-20T21:57:32.674Z,-7.27
2023-04-20T22:00:01.419Z,-7.29
2023-04-20T22:02:34.119Z,-7.32
2023-04-20T22:05:03.559Z,-7.35
2023-04-20T22:07:33.248Z,-7.34
2023-04-20T22:10:02.067Z,-7.35
2023-04-20T22:12:39.381Z,-7.36
2023-04-20T22:15:14.454Z,-7.34
2023-04-20T22:17:47.062Z,-7.30
2023-04-20T22:20:17.498Z,-7.27
2023-04-20T22:22:47.062Z,-7.23
2023-04-20T22:25:16.147Z,-7.19
2023-04-20T22:27:45.187Z,-7.13
2023-04-20T22:30:14.274Z,-7.07
2023-04-20T22:32:43.214Z,-6.97
2023-04-20T22:35:12.223Z,-6.88
2023-04-20T22:37:41.491Z,-6.84
2023-04-20T22:40:10.744Z,-6.83
2023-04-20T22:42:39.599Z,-6.83
2023-04-20T22:45:11.419Z,-6.84
2023-04-20T22:47:40.546Z,-6.80
2023-04-20T22:50:10.247Z,-6.78
2023-04-20T22:52:39.601Z,-6.76
2023-04-20T22:55:10.218Z,-6.72
2023-04-20T22:57:39.595Z,-6.68
2023-04-20T23:00:14.436Z,-6.64
2023-04-20T23:02:48.576Z,-6.56
2023-04-20T23:05:20.803Z,-6.51
2023-04-20T23:07:49.919Z,-6.43
2023-04-20T23:10:19.475Z,-6.32
2023-04-20T23:12:50.724Z,-6.16
2023-04-20T23:15:19.740Z,-6.02
2023-04-20T23:17:48.937Z,-5.87
2023-04-20T23:20:17.822Z,-5.75
2023-04-20T23:22:46.715Z,-5.61
2023-04-20T23:25:15.640Z,-5.48
2023-04-20T23:27:44.419Z,-5.33
2023-04-20T23:30:13.619Z,-5.19
2023-04-20T23:32:44.320Z,-5.01
2023-04-20T23:35:13.516Z,-4.85
2023-04-20T23:37:42.328Z,-4.70
2023-04-20T23:40:11.693Z,-4.57
2023-04-20T23:42:40.597Z,-4.46
2023-04-20T23:45:09.978Z,-4.37
2023-04-20T23:47:38.840Z,-4.32
2023-04-20T23:50:08.365Z,-4.28
2023-04-20T23:52:37.533Z,-4.10
2023-04-20T23:55:06.828Z,-3.94
2023-04-20T23:57:35.896Z,-3.83
